createdAt,value
2022-10-24T00:02:10.273Z,68.50
2022-10-24T00:04:57.696Z,68.70
2022-10-24T00:07:26.906Z,68.90
2022-10-24T00:09:55.866Z,69.10
2022-10-24T00:12:24.840Z,69.40
2022-10-24T00:14:53.804Z,69.50
2022-10-24T00:17:24.175Z,69.60
2022-10-24T00:19:54.430Z,70.50
2022-10-24T00:22:23.570Z,69.70
2022-10-24T00:24:52.417Z,69.80
2022-10-24T00:27:21.468Z,70.00
2022-10-24T00:29:50.666Z,70.10
2022-10-24T00:32:19.560Z,70.20
2022-10-24T00:34:49.996Z,70.30
2022-10-24T00:39:52.685Z,70.50
2022-10-24T00:42:21.654Z,70.60
2022-10-24T00:44:53.677Z,70.70
2022-10-24T00:47:24.958Z,71.00
2022-10-24T00:50:16.335Z,71.20
2022-10-24T00:52:47.720Z,71.40
2022-10-24T00:55:35.294Z,71.70
2022-10-24T00:58:05.602Z,71.90
2022-10-24T01:00:35.668Z,71.70
2022-10-24T01:03:04.805Z,71.90
2022-10-24T01:05:41.299Z,71.90
2022-10-24T01:08:21.187Z,71.90
2022-10-24T01:10:59.238Z,72.00
2022-10-24T01:13:40.001Z,72.20
2022-10-24T01:16:15.324Z,72.30
2022-10-24T01:18:50.828Z,72.40
2022-10-24T01:21:30.597Z,72.20
2022-10-24T01:24:43.176Z,72.40
2022-10-24T01:27:40.810Z,72.50
2022-10-24T01:30:13.398Z,72.70
2022-10-24T01:32:48.423Z,72.90
2022-10-24T01:35:36.552Z,73.20
2022-10-24T01:38:12.777Z,73.50
2022-10-24T01:40:50.941Z,73.60
2022-10-24T01:43:24.743Z,73.30
2022-10-24T01:45:59.636Z,73.20
2022-10-24T01:48:30.553Z,73.10
2022-10-24T01:51:01.785Z,72.70
2022-10-24T01:53:32.499Z,72.70
2022-10-24T01:56:19.964Z,72.90
2022-10-24T01:58:48.873Z,73.30
2022-10-24T02:01:24.048Z,73.40
2022-10-24T02:03:57.365Z,73.50
2022-10-24T02:06:30.921Z,73.60
2022-10-24T02:11:41.970Z,73.70
2022-10-24T02:14:16.384Z,73.90
2022-10-24T02:17:05.812Z,74.40
2022-10-24T02:19:35.021Z,74.40
2022-10-24T02:22:11.233Z,74.80
2022-10-24T02:24:47.473Z,75.10
2022-10-24T02:27:20.039Z,75.20
2022-10-24T02:29:52.588Z,75.30
2022-10-24T02:32:44.356Z,75.50
2022-10-24T02:35:16.391Z,75.70
2022-10-24T02:37:50.377Z,75.90
2022-10-24T02:40:21.625Z,76.10
2022-10-24T02:42:54.990Z,76.20
2022-10-24T02:45:24.826Z,76.30
2022-10-24T02:47:59.264Z,76.20
2022-10-24T02:50:28.788Z,76.40
2022-10-24T02:52:57.551Z,76.40
2022-10-24T02:55:26.556Z,76.60
2022-10-24T02:57:56.223Z,76.80
2022-10-24T03:00:25.192Z,77.00
2022-10-24T03:02:55.658Z,77.20
2022-10-24T03:05:24.589Z,77.40
2022-10-24T03:07:53.514Z,77.80
2022-10-24T03:10:22.958Z,77.00
2022-10-24T03:12:51.731Z,76.60
2022-10-24T03:15:39.414Z,76.30
2022-10-24T03:18:09.999Z,76.30
2022-10-24T03:20:39.052Z,76.50
2022-10-24T03:23:08.063Z,76.60
2022-10-24T03:25:36.974Z,76.90
2022-10-24T03:28:24.337Z,77.20
2022-10-24T03:30:53.868Z,77.30
2022-10-24T03:33:24.612Z,77.20
2022-10-24T03:35:54.409Z,76.90
2022-10-24T03:38:24.214Z,76.80
2022-10-24T03:40:53.502Z,76.80
2022-10-24T03:43:22.436Z,78.10
2022-10-24T03:45:51.313Z,77.40
2022-10-24T03:48:20.506Z,78.50
2022-10-24T03:50:50.851Z,78.80
2022-10-24T03:53:19.734Z,79.10
2022-10-24T03:55:48.546Z,79.40
2022-10-24T03:58:17.428Z,78.70
2022-10-24T04:00:46.398Z,79.10
2022-10-24T04:03:15.201Z,79.40
2022-10-24T04:05:44.083Z,79.40
2022-10-24T04:08:32.818Z,78.90
2022-10-24T04:11:01.861Z,78.60
2022-10-24T04:13:30.679Z,78.40
2022-10-24T04:15:59.444Z,78.50
2022-10-24T04:18:28.496Z,78.40
2022-10-24T04:20:57.336Z,78.10
2022-10-24T04:23:27.409Z,79.30
2022-10-24T04:25:57.814Z,79.40
2022-10-24T04:28:27.366Z,79.70
2022-10-24T04:30:57.500Z,79.90
2022-10-24T04:33:26.319Z,80.00
2022-10-24T04:35:55.276Z,80.20
2022-10-24T04:38:24.526Z,80.40
2022-10-24T04:40:55.055Z,80.70
2022-10-24T04:43:26.288Z,80.90
2022-10-24T04:45:55.317Z,80.00
2022-10-24T04:48:24.168Z,80.10
2022-10-24T04:50:53.381Z,80.20
2022-10-24T04:53:22.161Z,80.10
2022-10-24T04:55:50.981Z,80.10
2022-10-24T04:58:19.955Z,80.00
2022-10-24T05:00:50.522Z,79.80
2022-10-24T05:03:19.770Z,79.80
2022-10-24T05:05:48.890Z,80.00
2022-10-24T05:08:17.922Z,80.20
2022-10-24T05:10:51.656Z,80.40
2022-10-24T05:13:20.822Z,80.80
2022-10-24T05:15:51.124Z,81.00
2022-10-24T05:18:19.905Z,81.30
2022-10-24T05:20:48.864Z,81.60
2022-10-24T05:23:17.767Z,81.70
2022-10-24T05:25:46.564Z,82.00
2022-10-24T05:28:15.472Z,82.20
2022-10-24T05:30:45.336Z,82.40
2022-10-24T05:33:15.616Z,82.60
2022-10-24T05:35:44.980Z,82.80
2022-10-24T05:38:13.870Z,83.00
2022-10-24T05:40:42.710Z,83.60
2022-10-24T05:43:11.682Z,83.10
2022-10-24T05:45:40.641Z,83.20
2022-10-24T05:48:13.257Z,83.40
2022-10-24T05:50:44.185Z,83.40
2022-10-24T05:53:13.326Z,83.60
2022-10-24T05:55:42.207Z,83.70
2022-10-24T05:58:11.027Z,83.70
2022-10-24T06:00:39.914Z,83.80
2022-10-24T06:03:08.730Z,83.80
2022-10-24T06:05:37.468Z,83.80
2022-10-24T06:08:07.802Z,83.80
2022-10-24T06:10:36.939Z,83.90
2022-10-24T06:13:05.809Z,84.00
2022-10-24T06:15:34.659Z,84.00
2022-10-24T06:18:03.477Z,84.00
2022-10-24T06:20:32.270Z,83.90
2022-10-24T06:23:01.046Z,84.40
2022-10-24T06:25:31.369Z,83.40
2022-10-24T06:28:00.752Z,83.20
2022-10-24T06:30:29.614Z,82.90
2022-10-24T06:32:58.401Z,82.60
2022-10-24T06:35:27.251Z,82.40
2022-10-24T06:37:55.938Z,82.30
2022-10-24T06:40:24.707Z,82.00
2022-10-24T06:42:54.875Z,81.60
2022-10-24T06:45:24.156Z,81.20
2022-10-24T06:47:54.340Z,80.90
2022-10-24T06:50:23.662Z,80.60
2022-10-24T06:52:52.561Z,80.10
2022-10-24T06:55:21.774Z,79.70
2022-10-24T06:57:50.629Z,79.30
2022-10-24T07:00:21.159Z,79.00
2022-10-24T07:02:50.060Z,78.60
2022-10-24T07:05:19.081Z,78.20
2022-10-24T07:07:48.093Z,77.80
2022-10-24T07:10:17.182Z,77.30
2022-10-24T07:12:46.181Z,77.00
2022-10-24T07:15:15.207Z,76.70
2022-10-24T07:17:46.597Z,76.30
2022-10-24T07:20:16.265Z,76.00
2022-10-24T07:22:45.850Z,75.80
2022-10-24T07:25:15.175Z,75.50
2022-10-24T07:27:44.395Z,75.20
2022-10-24T07:30:18.378Z,74.70
2022-10-24T07:32:49.005Z,74.20
2022-10-24T07:35:18.063Z,73.90
2022-10-24T07:37:47.051Z,73.40
2022-10-24T07:40:16.034Z,72.70
2022-10-24T07:42:44.892Z,72.70
2022-10-24T07:45:14.219Z,72.50
2022-10-24T07:47:43.850Z,71.90
2022-10-24T07:50:15.891Z,71.40
2022-10-24T07:52:44.911Z,70.80
2022-10-24T07:55:13.723Z,70.50
2022-10-24T07:57:47.046Z,69.90
2022-10-24T08:00:42.514Z,69.60
2022-10-24T08:03:13.826Z,69.10
2022-10-24T08:05:44.467Z,68.70
2022-10-24T08:08:35.078Z,68.00
2022-10-24T08:11:02.714Z,67.70
2022-10-24T08:13:31.561Z,67.30
2022-10-24T08:16:00.434Z,66.10
2022-10-24T08:18:30.369Z,66.00
2022-10-24T08:21:03.249Z,65.60
2022-10-24T08:23:52.891Z,65.30
2022-10-24T08:26:27.515Z,64.50
2022-10-24T08:28:57.884Z,63.90
2022-10-24T08:31:27.990Z,63.80
2022-10-24T08:33:57.502Z,63.60
2022-10-24T08:36:29.131Z,63.00
2022-10-24T08:38:58.839Z,62.40
2022-10-24T08:41:32.881Z,62.70
2022-10-24T08:44:05.624Z,61.40
2022-10-24T08:46:49.208Z,60.10
2022-10-24T08:49:29.194Z,57.90
2022-10-24T08:52:03.394Z,55.10
2022-10-24T08:54:38.178Z,52.10
2022-10-24T08:57:08.858Z,49.30
2022-10-24T08:59:39.073Z,46.90
2022-10-24T09:02:18.829Z,44.80
2022-10-24T09:04:54.032Z,42.60
2022-10-24T09:07:25.696Z,40.90
2022-10-24T09:10:05.407Z,39.50
2022-10-24T09:12:37.545Z,38.30
2022-10-24T09:15:15.280Z,37.30
2022-10-24T09:17:45.504Z,36.40
2022-10-24T09:20:24.442Z,35.30
2022-10-24T09:23:15.475Z,34.30
2022-10-24T09:25:49.067Z,33.50
2022-10-24T09:28:18.909Z,32.50
2022-10-24T09:30:48.057Z,31.90
2022-10-24T09:33:26.570Z,31.90
2022-10-24T09:35:58.997Z,30.30
2022-10-24T09:38:34.928Z,29.90
2022-10-24T09:41:07.338Z,29.20
2022-10-24T09:43:41.317Z,29.10
2022-10-24T09:46:14.245Z,28.90
2022-10-24T09:48:56.608Z,28.80
2022-10-24T09:51:34.191Z,28.60
2022-10-24T09:54:08.658Z,28.30
2022-10-24T09:56:40.060Z,28.00
2022-10-24T09:59:21.619Z,27.70
2022-10-24T10:01:50.582Z,27.70
2022-10-24T10:04:24.049Z,27.50
2022-10-24T10:06:53.567Z,27.30
2022-10-24T10:09:32.064Z,27.40
2022-10-24T10:12:03.040Z,27.20
2022-10-24T10:14:32.769Z,26.80
2022-10-24T10:17:05.288Z,26.80
2022-10-24T10:19:38.427Z,26.60
2022-10-24T10:22:22.393Z,27.00
2022-10-24T10:25:30.887Z,27.00
2022-10-24T10:28:02.404Z,26.70
2022-10-24T10:30:33.681Z,26.90
2022-10-24T10:33:20.525Z,27.00
2022-10-24T10:35:56.755Z,27.00
2022-10-24T10:38:44.652Z,26.80
2022-10-24T10:41:30.062Z,26.80
2022-10-24T10:44:12.179Z,27.10
2022-10-24T10:46:49.825Z,27.30
2022-10-24T10:49:25.665Z,27.40
2022-10-24T10:51:59.789Z,27.40
2022-10-24T10:54:44.052Z,27.90
2022-10-24T10:57:17.944Z,27.70
2022-10-24T10:59:58.707Z,27.50
2022-10-24T11:02:49.326Z,27.30
2022-10-24T11:05:37.496Z,27.50
2022-10-24T11:08:31.405Z,27.70
2022-10-24T11:11:23.199Z,28.00
2022-10-24T11:13:58.122Z,29.00
2022-10-24T11:16:34.181Z,29.60
2022-10-24T11:19:23.347Z,30.30
2022-10-24T11:21:55.978Z,31.00
2022-10-24T11:24:26.623Z,31.50
2022-10-24T11:27:03.422Z,32.10
2022-10-24T11:29:41.481Z,32.90
2022-10-24T11:32:19.295Z,33.50
2022-10-24T11:35:01.961Z,33.60
2022-10-24T11:37:34.702Z,34.00
2022-10-24T11:40:08.049Z,33.70
2022-10-24T11:42:44.023Z,33.40
2022-10-24T11:45:41.322Z,33.20
2022-10-24T11:48:18.330Z,33.40
2022-10-24T11:50:51.382Z,32.60
2022-10-24T11:53:43.142Z,32.80
2022-10-24T11:56:18.652Z,33.40
2022-10-24T11:58:56.444Z,33.90
2022-10-24T12:02:00.384Z,34.70
2022-10-24T12:04:55.219Z,35.50
2022-10-24T12:08:11.756Z,36.00
2022-10-24T12:10:54.946Z,36.60
2022-10-24T12:13:46.176Z,37.30
2022-10-24T12:16:26.111Z,37.50
2022-10-24T12:19:02.028Z,37.90
2022-10-24T12:21:39.654Z,38.30
2022-10-24T12:24:20.781Z,38.90
2022-10-24T12:26:57.176Z,39.20
2022-10-24T12:29:28.102Z,39.50
2022-10-24T12:31:57.084Z,40.00
2022-10-24T12:34:49.139Z,40.10
2022-10-24T12:37:37.947Z,40.50
2022-10-24T12:40:43.894Z,40.40
2022-10-24T12:43:28.379Z,40.80
2022-10-24T12:46:00.362Z,40.70
2022-10-24T12:49:17.164Z,40.40
2022-10-24T12:51:47.466Z,39.60
2022-10-24T12:54:18.569Z,39.80
2022-10-24T12:57:24.449Z,39.60
2022-10-24T12:59:56.421Z,39.30
2022-10-24T13:02:52.901Z,39.50
2022-10-24T13:05:53.073Z,39.40
2022-10-24T13:08:44.154Z,39.80
2022-10-24T13:11:30.419Z,40.10
2022-10-24T13:14:31.716Z,40.20
2022-10-24T13:17:25.249Z,40.30
2022-10-24T13:20:05.573Z,40.50
2022-10-24T13:22:38.297Z,40.70
2022-10-24T13:25:34.861Z,41.10
2022-10-24T13:28:45.812Z,41.20
2022-10-24T13:31:49.111Z,41.50
2022-10-24T13:34:37.819Z,41.60
2022-10-24T13:37:14.507Z,41.80
2022-10-24T13:39:48.127Z,42.30
2022-10-24T13:42:40.146Z,42.50
2022-10-24T13:45:24.127Z,42.60
2022-10-24T13:47:58.248Z,42.70
2022-10-24T13:50:30.989Z,43.00
2022-10-24T13:53:03.550Z,43.00
2022-10-24T13:55:36.932Z,43.50
2022-10-24T13:58:13.236Z,43.70
2022-10-24T14:00:44.980Z,44.10
2022-10-24T14:03:17.163Z,44.00
2022-10-24T14:05:49.887Z,44.20
2022-10-24T14:08:28.279Z,44.30
2022-10-24T14:11:00.954Z,44.60
2022-10-24T14:13:33.223Z,45.00
2022-10-24T14:16:25.870Z,45.20
2022-10-24T14:19:32.504Z,45.30
2022-10-24T14:22:04.101Z,45.50
2022-10-24T14:24:33.551Z,45.90
2022-10-24T14:27:02.560Z,46.20
2022-10-24T14:29:33.562Z,46.40
2022-10-24T14:32:04.280Z,46.70
2022-10-24T14:34:36.308Z,46.80
2022-10-24T14:37:07.741Z,47.20
2022-10-24T14:39:38.340Z,47.50
2022-10-24T14:42:13.383Z,47.80
2022-10-24T14:44:46.750Z,48.00
2022-10-24T14:47:39.887Z,48.30
2022-10-24T14:50:36.858Z,48.40
2022-10-24T14:53:27.207Z,48.70
2022-10-24T14:55:59.054Z,48.90
2022-10-24T14:58:30.018Z,49.10
2022-10-24T15:01:01.603Z,49.20
2022-10-24T15:03:31.001Z,49.30
2022-10-24T15:06:08.365Z,49.50
2022-10-24T15:08:38.730Z,49.80
2022-10-24T15:11:21.968Z,50.00
2022-10-24T15:14:06.242Z,50.30
2022-10-24T15:16:43.060Z,50.40
2022-10-24T15:19:18.775Z,50.30
2022-10-24T15:21:50.987Z,50.60
2022-10-24T15:24:25.046Z,50.60
2022-10-24T15:27:00.122Z,50.70
2022-10-24T15:29:32.023Z,50.90
2022-10-24T15:32:21.611Z,51.00
2022-10-24T15:34:50.479Z,51.20
2022-10-24T15:37:31.312Z,51.30
2022-10-24T15:40:07.705Z,51.50
2022-10-24T15:42:36.800Z,51.80
2022-10-24T15:45:14.273Z,51.90
2022-10-24T15:47:55.618Z,52.10
2022-10-24T15:50:25.798Z,52.30
2022-10-24T15:53:04.871Z,52.50
2022-10-24T15:55:52.090Z,52.80
2022-10-24T15:58:21.029Z,52.90
2022-10-24T16:00:50.944Z,53.20
2022-10-24T16:03:24.322Z,53.50
2022-10-24T16:06:11.987Z,53.90
2022-10-24T16:08:40.849Z,54.00
2022-10-24T16:11:11.546Z,54.40
2022-10-24T16:13:40.858Z,54.80
2022-10-24T16:16:09.880Z,55.00
2022-10-24T16:18:40.190Z,55.10
2022-10-24T16:21:09.549Z,55.50
2022-10-24T16:23:38.443Z,55.70
2022-10-24T16:26:07.627Z,56.00
2022-10-24T16:28:36.513Z,56.30
2022-10-24T16:31:06.248Z,56.70
2022-10-24T16:33:35.117Z,56.90
2022-10-24T16:36:06.079Z,57.10
2022-10-24T16:38:35.671Z,57.60
2022-10-24T16:41:04.386Z,57.80
2022-10-24T16:43:36.314Z,58.10
2022-10-24T16:46:06.914Z,58.30
2022-10-24T16:48:35.680Z,58.60
2022-10-24T16:51:11.510Z,58.70
2022-10-24T16:53:40.395Z,59.10
2022-10-24T16:56:11.473Z,59.10
2022-10-24T16:58:40.984Z,59.40
2022-10-24T17:01:28.442Z,59.60
2022-10-24T17:03:57.256Z,59.90
2022-10-24T17:06:27.637Z,60.10
2022-10-24T17:08:56.516Z,60.60
2022-10-24T17:11:44.221Z,60.80
2022-10-24T17:14:15.072Z,61.00
2022-10-24T17:16:44.922Z,61.40
2022-10-24T17:19:16.534Z,61.60
2022-10-24T17:21:48.870Z,62.00
2022-10-24T17:24:20.009Z,62.20
2022-10-24T17:26:50.407Z,62.50
2022-10-24T17:29:38.137Z,62.60
2022-10-24T17:32:10.704Z,62.50
2022-10-24T17:34:40.824Z,62.80
2022-10-24T17:37:20.692Z,62.90
2022-10-24T17:39:52.664Z,63.20
2022-10-24T17:42:21.961Z,63.30
2022-10-24T17:44:51.239Z,63.30
2022-10-24T17:47:20.202Z,63.30
2022-10-24T17:49:49.045Z,63.40
2022-10-24T17:52:24.068Z,63.50
2022-10-24T17:54:53.510Z,63.50
2022-10-24T17:57:22.431Z,63.60
2022-10-24T17:59:51.400Z,63.50
2022-10-24T18:02:20.575Z,63.70
2022-10-24T18:04:52.399Z,63.80
2022-10-24T18:07:23.026Z,63.90
2022-10-24T18:09:58.344Z,64.90
2022-10-24T18:12:27.374Z,64.40
2022-10-24T18:14:57.104Z,64.60
2022-10-24T18:17:26.183Z,64.80
2022-10-24T18:20:15.788Z,65.10
2022-10-24T18:22:47.197Z,65.40
2022-10-24T18:25:20.312Z,65.60
2022-10-24T18:27:52.577Z,65.80
2022-10-24T18:30:22.481Z,66.00
2022-10-24T18:32:51.441Z,66.40
2022-10-24T18:35:22.647Z,66.40
2022-10-24T18:40:27.200Z,66.90
2022-10-24T18:43:00.061Z,67.10
2022-10-24T18:45:29.811Z,67.00
2022-10-24T18:47:59.541Z,67.20
2022-10-24T18:50:28.884Z,67.20
2022-10-24T18:53:05.676Z,67.30
2022-10-24T18:55:40.391Z,67.60
2022-10-24T18:58:14.141Z,67.60
2022-10-24T19:00:43.963Z,68.00
2022-10-24T19:03:20.701Z,68.10
2022-10-24T19:05:54.875Z,68.50
2022-10-24T19:08:27.603Z,68.70
2022-10-24T19:10:57.564Z,69.00
2022-10-24T19:13:27.985Z,69.20
2022-10-24T19:16:01.290Z,69.50
2022-10-24T19:18:32.818Z,69.70
2022-10-24T19:21:21.706Z,69.80
2022-10-24T19:23:52.529Z,69.80
2022-10-24T19:26:21.727Z,70.20
2022-10-24T19:28:50.458Z,70.40
2022-10-24T19:31:19.371Z,70.60
2022-10-24T19:33:48.378Z,70.80
2022-10-24T19:36:19.369Z,71.00
2022-10-24T19:38:48.622Z,71.20
2022-10-24T19:41:18.750Z,71.30
2022-10-24T19:43:47.694Z,71.40
2022-10-24T19:46:20.492Z,71.60
2022-10-24T19:48:50.416Z,71.80
2022-10-24T19:51:20.836Z,71.90
2022-10-24T19:53:51.026Z,72.10
2022-10-24T19:56:25.262Z,72.40
2022-10-24T19:58:55.206Z,72.60
2022-10-24T20:01:26.588Z,72.70
2022-10-24T20:03:56.766Z,72.80
2022-10-24T20:06:27.507Z,73.00
2022-10-24T20:08:56.317Z,73.20
2022-10-24T20:11:27.329Z,73.40
2022-10-24T20:13:59.447Z,73.50
2022-10-24T20:16:28.619Z,73.30
2022-10-24T20:18:57.623Z,73.40
2022-10-24T20:21:26.575Z,73.40
2022-10-24T20:24:00.200Z,73.50
2022-10-24T20:26:31.579Z,73.50
2022-10-24T20:29:00.649Z,73.80
2022-10-24T20:31:31.669Z,73.80
2022-10-24T20:34:07.971Z,74.00
2022-10-24T20:36:38.748Z,74.30
2022-10-24T20:39:08.658Z,74.50
2022-10-24T20:41:40.062Z,74.80
2022-10-24T20:44:27.604Z,75.10
2022-10-24T20:46:59.116Z,75.30
2022-10-24T20:49:28.172Z,75.60
2022-10-24T20:51:57.132Z,75.80
2022-10-24T20:54:26.168Z,75.90
2022-10-24T20:56:56.624Z,75.90
2022-10-24T20:59:44.288Z,76.00
2022-10-24T21:02:13.366Z,75.90
2022-10-24T21:04:42.182Z,75.70
2022-10-24T21:07:12.299Z,75.70
2022-10-24T21:09:41.206Z,75.90
2022-10-24T21:12:11.771Z,75.90
2022-10-24T21:14:44.217Z,76.10
2022-10-24T21:17:13.236Z,76.30
2022-10-24T21:19:42.200Z,76.40
2022-10-24T21:22:11.159Z,76.60
2022-10-24T21:24:40.336Z,76.80
2022-10-24T21:27:10.854Z,76.90
2022-10-24T21:29:39.845Z,77.20
2022-10-24T21:32:09.166Z,77.30
2022-10-24T21:34:37.962Z,77.50
2022-10-24T21:37:06.937Z,77.70
2022-10-24T21:39:38.647Z,77.70
2022-10-24T21:42:07.570Z,77.80
2022-10-24T21:44:37.911Z,77.70
2022-10-24T21:47:06.795Z,78.00
2022-10-24T21:49:35.945Z,78.00
2022-10-24T21:52:04.958Z,78.10
2022-10-24T21:54:34.050Z,78.20
2022-10-24T21:57:03.431Z,78.10
2022-10-24T21:59:32.330Z,78.20
2022-10-24T22:02:02.682Z,78.30
2022-10-24T22:04:31.875Z,78.30
2022-10-24T22:07:00.681Z,78.30
2022-10-24T22:09:29.727Z,78.40
2022-10-24T22:11:59.059Z,78.30
2022-10-24T22:14:28.040Z,78.20
2022-10-24T22:16:56.787Z,78.00
2022-10-24T22:19:27.311Z,77.50
2022-10-24T22:21:56.198Z,77.30
2022-10-24T22:24:26.537Z,77.50
2022-10-24T22:26:55.794Z,77.90
2022-10-24T22:29:25.985Z,78.20
2022-10-24T22:31:55.555Z,78.50
2022-10-24T22:34:27.366Z,78.60
2022-10-24T22:37:13.022Z,78.90
2022-10-24T22:39:43.387Z,79.00
2022-10-24T22:42:15.948Z,79.20
2022-10-24T22:45:06.175Z,79.30
2022-10-24T22:47:47.097Z,79.40
2022-10-24T22:50:43.887Z,79.60
2022-10-24T22:53:15.418Z,79.90
2022-10-24T22:55:55.511Z,80.20
2022-10-24T22:58:25.102Z,80.50
2022-10-24T23:01:00.013Z,80.70
2022-10-24T23:03:36.007Z,80.90
2022-10-24T23:06:12.943Z,81.30
2022-10-24T23:08:44.135Z,81.40
2022-10-24T23:11:14.530Z,81.20
2022-10-24T23:13:44.406Z,81.10
2022-10-24T23:16:23.529Z,80.90
2022-10-24T23:18:52.881Z,80.60
2022-10-24T23:21:29.669Z,80.40
2022-10-24T23:23:59.221Z,79.90
2022-10-24T23:26:37.877Z,79.90
2022-10-24T23:29:12.214Z,79.80
2022-10-24T23:31:41.666Z,79.10
2022-10-24T23:34:11.670Z,79.20
2022-10-24T23:36:46.878Z,79.20
2022-10-24T23:39:16.413Z,79.40
2022-10-24T23:41:45.925Z,79.70
2022-10-24T23:44:15.243Z,79.90
2022-10-24T23:46:48.026Z,80.10
2022-10-24T23:49:26.229Z,80.30
2022-10-24T23:52:04.167Z,80.40
2022-10-24T23:54:34.418Z,80.50
2022-10-24T23:57:03.909Z,80.70
2022-10-24T23:59:32.714Z,81.00
